createdAt,value
2024-02-01T00:00:17.652Z,623.00
2024-02-01T00:01:17.762Z,624.00
2024-02-01T00:02:18.246Z,622.00
2024-02-01T00:03:17.826Z,621.00
2024-02-01T00:04:17.891Z,622.00
2024-02-01T00:05:17.950Z,620.00
2024-02-01T00:06:18.055Z,619.00
2024-02-01T00:07:17.978Z,618.00
2024-02-01T00:08:18.012Z,618.00
2024-02-01T00:09:18.046Z,616.00
2024-02-01T00:10:18.046Z,616.00
2024-02-01T00:11:18.140Z,612.00
2024-02-01T00:12:18.196Z,611.00
2024-02-01T00:13:18.238Z,611.00
2024-02-01T00:14:18.301Z,612.00
2024-02-01T00:15:18.351Z,612.00
2024-02-01T00:16:18.371Z,612.00
2024-02-01T00:17:18.442Z,611.00
2024-02-01T00:18:18.578Z,612.00
2024-02-01T00:19:18.550Z,616.00
2024-02-01T00:20:18.606Z,617.00
2024-02-01T00:21:18.731Z,616.00
2024-02-01T00:22:58.357Z,609.00
2024-02-01T00:23:58.443Z,610.00
2024-02-01T00:24:58.330Z,612.00
2024-02-01T00:25:58.332Z,612.00
2024-02-01T00:26:58.384Z,613.00
2024-02-01T00:27:58.310Z,612.00
2024-02-01T00:28:58.320Z,613.00
2024-02-01T00:29:58.373Z,612.00
2024-02-01T00:30:58.368Z,614.00
2024-02-01T00:31:58.381Z,613.00
2024-02-01T00:32:58.566Z,613.00
2024-02-01T00:33:58.542Z,612.00
2024-02-01T00:34:58.483Z,612.00
2024-02-01T00:35:58.403Z,613.00
2024-02-01T00:36:58.365Z,616.00
2024-02-01T00:37:58.367Z,618.00
2024-02-01T00:38:58.408Z,619.00
2024-02-01T00:39:58.378Z,619.00
2024-02-01T00:40:58.376Z,619.00
2024-02-01T00:41:58.425Z,618.00
2024-02-01T00:42:58.355Z,618.00
2024-02-01T00:43:58.320Z,618.00
2024-02-01T00:44:58.414Z,618.00
2024-02-01T00:45:58.373Z,617.00
2024-02-01T00:46:58.328Z,616.00
2024-02-01T00:47:58.415Z,613.00
2024-02-01T00:48:58.433Z,614.00
2024-02-01T00:49:58.335Z,614.00
2024-02-01T00:50:58.350Z,616.00
2024-02-01T00:51:58.335Z,615.00
2024-02-01T00:52:58.314Z,615.00
2024-02-01T00:53:58.307Z,616.00
2024-02-01T00:54:58.266Z,615.00
2024-02-01T00:55:58.282Z,614.00
2024-02-01T00:56:58.377Z,614.00
2024-02-01T00:57:58.241Z,613.00
2024-02-01T00:58:58.247Z,613.00
2024-02-01T00:59:58.309Z,613.00
2024-02-01T01:00:58.408Z,615.00
2024-02-01T01:01:58.242Z,616.00
2024-02-01T01:02:58.247Z,617.00
2024-02-01T01:03:58.271Z,618.00
2024-02-01T01:04:58.311Z,616.00
2024-02-01T01:05:58.323Z,616.00
2024-02-01T01:06:58.197Z,616.00
2024-02-01T01:07:58.251Z,615.00
2024-02-01T01:08:58.248Z,616.00
2024-02-01T01:09:58.243Z,618.00
2024-02-01T01:10:58.224Z,619.00
2024-02-01T01:11:58.259Z,618.00
2024-02-01T01:12:58.245Z,616.00
2024-02-01T01:13:58.239Z,613.00
2024-02-01T01:14:58.248Z,612.00
2024-02-01T01:15:58.212Z,612.00
2024-02-01T01:16:58.215Z,612.00
2024-02-01T01:17:58.273Z,610.00
2024-02-01T01:18:58.392Z,607.00
2024-02-01T01:19:58.281Z,608.00
2024-02-01T01:20:58.285Z,609.00
2024-02-01T01:21:58.204Z,609.00
2024-02-01T01:22:58.219Z,610.00
2024-02-01T01:23:58.265Z,612.00
2024-02-01T01:24:58.209Z,614.00
2024-02-01T01:25:58.182Z,611.00
2024-02-01T01:26:58.273Z,610.00
2024-02-01T01:27:58.203Z,610.00
2024-02-01T01:28:58.176Z,609.00
2024-02-01T01:29:58.201Z,609.00
2024-02-01T01:30:58.176Z,608.00
2024-02-01T01:31:58.165Z,609.00
2024-02-01T01:32:58.289Z,612.00
2024-02-01T01:33:58.487Z,609.00
2024-02-01T01:34:58.230Z,608.00
2024-02-01T01:35:58.189Z,606.00
2024-02-01T01:36:58.151Z,603.00
2024-02-01T01:37:58.160Z,603.00
2024-02-01T01:38:58.178Z,605.00
2024-02-01T01:39:58.175Z,605.00
2024-02-01T01:40:58.250Z,602.00
2024-02-01T01:41:58.287Z,602.00
2024-02-01T01:42:58.249Z,603.00
2024-02-01T01:43:58.316Z,605.00
2024-02-01T01:44:58.370Z,608.00
2024-02-01T01:45:58.338Z,610.00
2024-02-01T01:46:58.353Z,613.00
2024-02-01T01:47:58.471Z,615.00
2024-02-01T01:48:58.586Z,613.00
2024-02-01T01:49:58.577Z,610.00
2024-02-01T01:50:58.580Z,606.00
2024-02-01T01:51:58.517Z,605.00
2024-02-01T01:52:58.559Z,604.00
2024-02-01T01:53:58.654Z,605.00
2024-02-01T01:54:58.619Z,606.00
2024-02-01T01:55:58.669Z,606.00
2024-02-01T01:56:58.722Z,605.00
2024-02-01T01:57:58.736Z,605.00
2024-02-01T01:58:58.735Z,605.00
2024-02-01T01:59:58.835Z,604.00
2024-02-01T02:00:58.854Z,604.00
2024-02-01T02:01:58.802Z,603.00
2024-02-01T02:03:00.458Z,604.00
2024-02-01T02:03:58.804Z,603.00
2024-02-01T02:04:58.813Z,604.00
2024-02-01T02:05:59.001Z,606.00
2024-02-01T02:06:58.964Z,609.00
2024-02-01T02:07:58.983Z,608.00
2024-02-01T02:08:59.104Z,607.00
2024-02-01T02:09:59.061Z,606.00
2024-02-01T02:10:59.109Z,608.00
2024-02-01T02:11:59.143Z,607.00
2024-02-01T02:12:59.186Z,605.00
2024-02-01T02:13:59.198Z,603.00
2024-02-01T02:14:59.254Z,601.00
2024-02-01T02:15:59.515Z,602.00
2024-02-01T02:16:59.313Z,605.00
2024-02-01T02:17:59.376Z,607.00
2024-02-01T02:18:59.439Z,607.00
2024-02-01T02:19:59.379Z,607.00
2024-02-01T02:20:59.439Z,607.00
2024-02-01T02:21:59.457Z,605.00
2024-02-01T02:22:59.444Z,606.00
2024-02-01T02:23:59.499Z,609.00
2024-02-01T02:24:59.471Z,607.00
2024-02-01T02:25:59.532Z,607.00
2024-02-01T02:26:59.566Z,605.00
2024-02-01T02:27:59.544Z,604.00
2024-02-01T02:28:59.624Z,604.00
2024-02-01T02:29:59.657Z,605.00
2024-02-01T02:30:59.613Z,604.00
2024-02-01T02:31:59.557Z,602.00
2024-02-01T02:32:59.644Z,602.00
2024-02-01T02:33:59.755Z,603.00
2024-02-01T02:34:59.640Z,602.00
2024-02-01T02:35:59.701Z,603.00
2024-02-01T02:36:59.687Z,606.00
2024-02-01T02:37:59.693Z,609.00
2024-02-01T02:38:59.766Z,611.00
2024-02-01T02:39:59.778Z,611.00
2024-02-01T02:40:59.742Z,611.00
2024-02-01T02:41:59.789Z,612.00
2024-02-01T02:42:59.801Z,615.00
2024-02-01T02:43:59.818Z,614.00
2024-02-01T02:44:59.936Z,613.00
2024-02-01T02:45:59.945Z,614.00
2024-02-01T02:47:00.058Z,613.00
2024-02-01T02:48:00.161Z,613.00
2024-02-01T02:49:00.191Z,611.00
2024-02-01T02:50:00.121Z,611.00
2024-02-01T02:51:00.232Z,612.00
2024-02-01T02:52:00.168Z,612.00
2024-02-01T02:53:00.187Z,611.00
2024-02-01T02:54:00.261Z,610.00
2024-02-01T02:55:00.258Z,609.00
2024-02-01T02:56:00.269Z,609.00
2024-02-01T02:57:00.344Z,609.00
2024-02-01T02:58:00.364Z,607.00
2024-02-01T02:59:00.360Z,606.00
2024-02-01T03:00:00.443Z,607.00
2024-02-01T03:01:00.451Z,609.00
2024-02-01T03:02:00.477Z,608.00
2024-02-01T03:03:00.591Z,608.00
2024-02-01T03:04:00.598Z,606.00
2024-02-01T03:05:00.629Z,603.00
2024-02-01T03:06:00.679Z,604.00
2024-02-01T03:07:00.673Z,602.00
2024-02-01T03:08:00.725Z,602.00
2024-02-01T03:09:00.801Z,603.00
2024-02-01T03:10:00.730Z,601.00
2024-02-01T03:11:00.818Z,602.00
2024-02-01T03:12:00.923Z,602.00
2024-02-01T03:13:00.892Z,603.00
2024-02-01T03:14:00.993Z,600.00
2024-02-01T03:15:01.155Z,600.00
2024-02-01T03:16:01.005Z,601.00
2024-02-01T03:17:01.012Z,602.00
2024-02-01T03:18:01.107Z,602.00
2024-02-01T03:19:01.248Z,602.00
2024-02-01T03:20:01.052Z,600.00
2024-02-01T03:21:01.084Z,598.00
2024-02-01T03:22:01.110Z,598.00
2024-02-01T03:23:01.114Z,599.00
2024-02-01T03:24:01.251Z,599.00
2024-02-01T03:25:01.774Z,596.00
2024-02-01T03:26:01.185Z,598.00
2024-02-01T03:27:01.297Z,597.00
2024-02-01T03:28:01.189Z,597.00
2024-02-01T03:29:01.198Z,597.00
2024-02-01T03:30:01.677Z,599.00
2024-02-01T03:31:01.259Z,597.00
2024-02-01T03:32:01.234Z,596.00
2024-02-01T03:33:01.365Z,597.00
2024-02-01T03:34:01.440Z,597.00
2024-02-01T03:35:01.319Z,598.00
2024-02-01T03:36:01.599Z,599.00
2024-02-01T03:37:01.311Z,596.00
2024-02-01T03:38:01.300Z,596.00
2024-02-01T03:39:01.363Z,596.00
2024-02-01T03:40:01.510Z,597.00
2024-02-01T03:41:01.545Z,594.00
2024-02-01T03:42:01.375Z,593.00
2024-02-01T03:43:01.691Z,594.00
2024-02-01T03:44:01.359Z,594.00
2024-02-01T03:45:01.449Z,596.00
2024-02-01T03:46:01.527Z,597.00
2024-02-01T03:47:01.452Z,598.00
2024-02-01T03:48:01.570Z,598.00
2024-02-01T03:49:01.584Z,598.00
2024-02-01T03:50:01.527Z,598.00
2024-02-01T03:51:01.554Z,598.00
2024-02-01T03:52:01.545Z,597.00
2024-02-01T03:53:01.581Z,599.00
2024-02-01T03:54:01.616Z,599.00
2024-02-01T03:55:01.614Z,601.00
2024-02-01T03:56:02.020Z,601.00
2024-02-01T03:57:01.682Z,599.00
2024-02-01T03:58:01.655Z,599.00
2024-02-01T03:59:01.623Z,598.00
2024-02-01T04:00:01.726Z,601.00
2024-02-01T04:01:02.063Z,601.00
2024-02-01T04:02:01.692Z,598.00
2024-02-01T04:03:01.729Z,598.00
2024-02-01T04:04:01.798Z,597.00
2024-02-01T04:05:01.742Z,598.00
2024-02-01T04:06:02.468Z,597.00
2024-02-01T04:07:02.019Z,596.00
2024-02-01T04:08:01.799Z,595.00
2024-02-01T04:09:01.864Z,593.00
2024-02-01T04:10:01.895Z,593.00
2024-02-01T04:11:02.028Z,594.00
2024-02-01T04:12:02.000Z,593.00
2024-02-01T04:13:02.030Z,592.00
2024-02-01T04:14:02.072Z,593.00
2024-02-01T04:15:02.176Z,593.00
2024-02-01T04:16:02.136Z,591.00
2024-02-01T04:17:02.161Z,590.00
2024-02-01T04:18:02.377Z,591.00
2024-02-01T04:19:02.436Z,591.00
2024-02-01T04:20:02.294Z,590.00
2024-02-01T04:21:02.219Z,591.00
2024-02-01T04:22:02.209Z,592.00
2024-02-01T04:23:02.209Z,593.00
2024-02-01T04:24:02.280Z,593.00
2024-02-01T04:25:02.256Z,596.00
2024-02-01T04:26:02.297Z,596.00
2024-02-01T04:27:02.565Z,596.00
2024-02-01T04:28:02.348Z,598.00
2024-02-01T04:29:02.372Z,597.00
2024-02-01T04:30:09.622Z,579.00
2024-02-01T04:31:16.846Z,586.00
2024-02-01T04:32:16.806Z,586.00
2024-02-01T04:33:16.845Z,584.00
2024-02-01T04:34:18.790Z,582.00
2024-02-01T04:35:16.808Z,585.00
2024-02-01T04:36:16.907Z,587.00
2024-02-01T04:37:16.779Z,590.00
2024-02-01T04:38:16.853Z,592.00
2024-02-01T04:39:16.832Z,593.00
2024-02-01T04:40:16.769Z,594.00
2024-02-01T04:41:16.773Z,595.00
2024-02-01T04:42:17.014Z,595.00
2024-02-01T04:43:16.870Z,594.00
2024-02-01T04:44:16.937Z,596.00
2024-02-01T04:45:16.990Z,599.00
2024-02-01T04:46:16.961Z,601.00
2024-02-01T04:47:16.996Z,597.00
2024-02-01T04:48:17.126Z,596.00
2024-02-01T04:49:17.209Z,596.00
2024-02-01T04:50:17.096Z,596.00
2024-02-01T04:51:17.168Z,597.00
2024-02-01T04:52:17.185Z,597.00
2024-02-01T04:53:17.173Z,598.00
2024-02-01T04:54:17.334Z,599.00
2024-02-01T04:55:17.461Z,600.00
2024-02-01T04:56:17.286Z,601.00
2024-02-01T04:57:17.365Z,602.00
2024-02-01T04:58:17.332Z,600.00
2024-02-01T04:59:17.387Z,600.00
2024-02-01T05:00:17.545Z,603.00
2024-02-01T05:01:17.512Z,602.00
2024-02-01T05:02:17.521Z,601.00
2024-02-01T05:03:17.729Z,601.00
2024-02-01T05:04:17.662Z,601.00
2024-02-01T05:05:17.658Z,600.00
2024-02-01T05:06:17.765Z,599.00
2024-02-01T05:07:17.828Z,598.00
2024-02-01T05:08:17.782Z,595.00
2024-02-01T05:09:17.847Z,596.00
2024-02-01T05:10:17.837Z,596.00
2024-02-01T05:11:17.908Z,598.00
2024-02-01T05:12:17.983Z,602.00
2024-02-01T05:13:17.869Z,601.00
2024-02-01T05:14:17.909Z,601.00
2024-02-01T05:15:17.963Z,602.00
2024-02-01T05:16:17.986Z,604.00
2024-02-01T05:17:18.022Z,607.00
2024-02-01T05:18:18.130Z,607.00
2024-02-01T05:19:18.228Z,609.00
2024-02-01T05:20:18.056Z,610.00
2024-02-01T05:21:18.262Z,609.00
2024-02-01T05:22:18.086Z,609.00
2024-02-01T05:23:18.146Z,608.00
2024-02-01T05:24:18.179Z,606.00
2024-02-01T05:25:18.211Z,608.00
2024-02-01T05:26:18.254Z,605.00
2024-02-01T05:27:18.363Z,602.00
2024-02-01T05:28:18.243Z,601.00
2024-02-01T05:29:18.280Z,603.00
2024-02-01T05:30:21.077Z,603.00
2024-02-01T05:31:18.268Z,603.00
2024-02-01T05:32:18.296Z,604.00
2024-02-01T05:33:18.475Z,604.00
2024-02-01T05:34:18.413Z,604.00
2024-02-01T05:35:18.285Z,603.00
2024-02-01T05:36:18.375Z,603.00
2024-02-01T05:37:18.338Z,602.00
2024-02-01T05:38:18.324Z,601.00
2024-02-01T05:39:18.315Z,600.00
2024-02-01T05:40:18.345Z,603.00
2024-02-01T05:41:18.326Z,603.00
2024-02-01T05:42:18.365Z,603.00
2024-02-01T05:43:18.347Z,603.00
2024-02-01T05:44:18.335Z,605.00
2024-02-01T05:45:18.387Z,605.00
2024-02-01T05:46:18.317Z,604.00
2024-02-01T05:47:18.340Z,606.00
2024-02-01T05:48:18.486Z,606.00
2024-02-01T05:49:18.404Z,603.00
2024-02-01T05:50:18.313Z,605.00
2024-02-01T05:51:18.403Z,605.00
2024-02-01T05:52:18.331Z,605.00
2024-02-01T05:53:18.354Z,605.00
2024-02-01T05:54:18.430Z,606.00
2024-02-01T05:55:18.362Z,607.00
2024-02-01T05:56:18.351Z,607.00
2024-02-01T05:57:18.398Z,609.00
2024-02-01T05:58:18.305Z,612.00
2024-02-01T05:59:18.293Z,613.00
2024-02-01T06:00:18.428Z,615.00
2024-02-01T06:01:18.560Z,617.00
2024-02-01T06:02:18.330Z,619.00
2024-02-01T06:03:18.363Z,625.00
2024-02-01T06:04:18.281Z,625.00
2024-02-01T06:05:18.270Z,625.00
2024-02-01T06:06:18.303Z,626.00
2024-02-01T06:07:18.295Z,626.00
2024-02-01T06:08:18.258Z,627.00
2024-02-01T06:09:18.312Z,628.00
2024-02-01T06:10:18.272Z,627.00
2024-02-01T06:11:18.246Z,625.00
2024-02-01T06:12:18.321Z,625.00
2024-02-01T06:13:18.228Z,623.00
2024-02-01T06:14:18.221Z,624.00
2024-02-01T06:15:18.297Z,625.00
2024-02-01T06:16:18.220Z,624.00
2024-02-01T06:17:18.228Z,622.00
2024-02-01T06:18:18.334Z,620.00
2024-02-01T06:19:18.385Z,620.00
2024-02-01T06:20:18.213Z,620.00
2024-02-01T06:21:18.304Z,620.00
2024-02-01T06:22:18.225Z,623.00
2024-02-01T06:23:18.237Z,627.00
2024-02-01T06:24:18.231Z,629.00
2024-02-01T06:25:18.207Z,630.00
2024-02-01T06:26:18.208Z,629.00
2024-02-01T06:27:18.272Z,627.00
2024-02-01T06:28:18.325Z,626.00
2024-02-01T06:29:18.186Z,625.00
2024-02-01T06:30:18.279Z,625.00
2024-02-01T06:31:18.184Z,625.00
2024-02-01T06:32:18.157Z,624.00
2024-02-01T06:33:18.211Z,622.00
2024-02-01T06:34:18.177Z,621.00
2024-02-01T06:35:19.442Z,620.00
2024-02-01T06:36:18.268Z,619.00
2024-02-01T06:37:18.233Z,619.00
2024-02-01T06:38:18.175Z,620.00
2024-02-01T06:39:18.772Z,621.00
2024-02-01T06:40:18.302Z,622.00
2024-02-01T06:41:18.155Z,621.00
2024-02-01T06:42:18.479Z,620.00
2024-02-01T06:43:18.232Z,620.00
2024-02-01T06:44:18.145Z,623.00
2024-02-01T06:45:18.221Z,623.00
2024-02-01T06:46:18.151Z,624.00
2024-02-01T06:47:18.227Z,623.00
2024-02-01T06:48:18.340Z,625.00
2024-02-01T06:49:18.224Z,693.00
2024-02-01T06:50:18.229Z,706.00
2024-02-01T06:51:18.165Z,714.00
2024-02-01T06:52:18.134Z,714.00
2024-02-01T06:53:18.147Z,714.00
2024-02-01T06:54:18.173Z,711.00
2024-02-01T06:55:18.174Z,709.00
2024-02-01T06:56:18.171Z,718.00
2024-02-01T06:57:18.205Z,732.00
2024-02-01T06:58:18.215Z,734.00
2024-02-01T06:59:18.234Z,734.00
2024-02-01T07:00:18.296Z,744.00
2024-02-01T07:01:18.418Z,731.00
2024-02-01T07:02:18.403Z,724.00
2024-02-01T07:03:18.586Z,726.00
2024-02-01T07:04:18.989Z,725.00
2024-02-01T07:05:18.618Z,727.00
2024-02-01T07:06:18.716Z,726.00
2024-02-01T07:07:18.839Z,727.00
2024-02-01T07:08:18.653Z,726.00
2024-02-01T07:09:18.974Z,722.00
2024-02-01T07:10:18.702Z,720.00
2024-02-01T07:11:18.998Z,718.00
2024-02-01T07:12:18.964Z,716.00
2024-02-01T07:13:18.827Z,711.00
2024-02-01T07:14:18.929Z,703.00
2024-02-01T07:15:18.996Z,695.00
2024-02-01T07:16:18.978Z,686.00
2024-02-01T07:17:19.068Z,679.00
2024-02-01T07:18:19.199Z,673.00
2024-02-01T07:19:19.523Z,667.00
2024-02-01T07:20:19.216Z,663.00
2024-02-01T07:21:19.310Z,658.00
2024-02-01T07:22:19.373Z,657.00
2024-02-01T07:23:19.387Z,654.00
2024-02-01T07:24:19.608Z,652.00
2024-02-01T07:25:19.543Z,649.00
2024-02-01T07:26:19.649Z,649.00
2024-02-01T07:27:19.752Z,647.00
2024-02-01T07:28:19.826Z,649.00
2024-02-01T07:29:19.881Z,649.00
2024-02-01T07:30:20.008Z,649.00
2024-02-01T07:31:20.047Z,650.00
2024-02-01T07:32:20.107Z,651.00
2024-02-01T07:33:20.376Z,653.00
2024-02-01T07:34:20.346Z,654.00
2024-02-01T07:35:20.305Z,651.00
2024-02-01T07:36:20.603Z,648.00
2024-02-01T07:37:20.434Z,646.00
2024-02-01T07:38:20.494Z,643.00
2024-02-01T07:39:20.616Z,644.00
2024-02-01T07:40:20.606Z,643.00
2024-02-01T07:41:20.686Z,640.00
2024-02-01T07:42:20.793Z,640.00
2024-02-01T07:43:20.882Z,638.00
2024-02-01T07:44:20.874Z,639.00
2024-02-01T07:45:20.995Z,642.00
2024-02-01T07:46:21.472Z,644.00
2024-02-01T07:47:21.169Z,643.00
2024-02-01T07:48:21.348Z,646.00
2024-02-01T07:49:21.536Z,649.00
2024-02-01T07:50:21.461Z,650.00
2024-02-01T07:51:22.059Z,651.00
2024-02-01T07:52:21.670Z,651.00
2024-02-01T07:53:21.728Z,653.00
2024-02-01T07:54:21.866Z,665.00
2024-02-01T07:55:21.948Z,776.00
2024-02-01T07:56:22.030Z,806.00
2024-02-01T07:57:22.103Z,837.00
2024-02-01T07:58:22.120Z,885.00
2024-02-01T07:59:22.187Z,957.00
2024-02-01T08:00:22.390Z,994.00
2024-02-01T08:01:22.509Z,1073.00
2024-02-01T08:02:22.402Z,1072.00
2024-02-01T08:03:22.523Z,1083.00
2024-02-01T08:04:22.541Z,1106.00
2024-02-01T08:05:22.600Z,1119.00
2024-02-01T08:06:23.019Z,1137.00
2024-02-01T08:07:22.737Z,1211.00
2024-02-01T08:08:22.763Z,1221.00
2024-02-01T08:09:22.773Z,1226.00
2024-02-01T08:10:22.815Z,1232.00
2024-02-01T08:11:23.429Z,1246.00
2024-02-01T08:12:22.970Z,1255.00
2024-02-01T08:13:22.973Z,1262.00
2024-02-01T08:14:23.090Z,1279.00
2024-02-01T08:15:23.294Z,1319.00
2024-02-01T08:16:23.527Z,1335.00
2024-02-01T08:17:23.255Z,1382.00
2024-02-01T08:18:23.354Z,1494.00
2024-02-01T08:19:34.646Z,1488.00
2024-02-01T08:20:24.426Z,1479.00
2024-02-01T08:21:23.377Z,1483.00
2024-02-01T08:22:23.361Z,1525.00
2024-02-01T08:23:23.417Z,1569.00
2024-02-01T08:24:23.439Z,1564.00
2024-02-01T08:25:23.428Z,1586.00
2024-02-01T08:26:23.410Z,1600.00
2024-02-01T08:27:23.495Z,1616.00
2024-02-01T08:28:23.409Z,1631.00
2024-02-01T08:29:23.431Z,1655.00
2024-02-01T08:30:23.508Z,1708.00
2024-02-01T08:31:23.422Z,1723.00
2024-02-01T08:32:23.398Z,1728.00
2024-02-01T08:33:23.512Z,1740.00
2024-02-01T08:34:23.499Z,1775.00
2024-02-01T08:35:23.387Z,1809.00
2024-02-01T08:36:23.584Z,1827.00
2024-02-01T08:37:25.007Z,1841.00
2024-02-01T08:38:23.424Z,1852.00
2024-02-01T08:39:23.470Z,1922.00
2024-02-01T08:40:23.386Z,1974.00
2024-02-01T08:41:23.386Z,1984.00
2024-02-01T08:42:23.437Z,1996.00
2024-02-01T08:43:23.416Z,1999.00
2024-02-01T08:44:23.423Z,2007.00
2024-02-01T08:45:23.500Z,2019.00
2024-02-01T08:46:23.555Z,2050.00
2024-02-01T08:47:23.551Z,2124.00
2024-02-01T08:48:23.711Z,2132.00
2024-02-01T08:49:23.847Z,2140.00
2024-02-01T08:50:23.693Z,2158.00
2024-02-01T08:51:24.110Z,2172.00
2024-02-01T08:52:23.774Z,2179.00
2024-02-01T08:53:23.828Z,2176.00
2024-02-01T08:54:23.907Z,2221.00
2024-02-01T08:55:23.977Z,2049.00
2024-02-01T08:56:24.015Z,1710.00
2024-02-01T08:57:24.358Z,1739.00
2024-02-01T08:58:23.911Z,1889.00
2024-02-01T08:59:23.944Z,1926.00
2024-02-01T09:00:23.985Z,2025.00
2024-02-01T09:01:24.357Z,2042.00
2024-02-01T09:02:24.057Z,2041.00
2024-02-01T09:03:24.181Z,2042.00
2024-02-01T09:04:24.149Z,2050.00
2024-02-01T09:05:24.411Z,2057.00
2024-02-01T09:06:24.719Z,2069.00
2024-02-01T09:07:24.380Z,2086.00
2024-02-01T09:08:24.349Z,2103.00
2024-02-01T09:09:24.432Z,2116.00
2024-02-01T09:10:24.438Z,2124.00
2024-02-01T09:11:24.571Z,2138.00
2024-02-01T09:12:24.686Z,2154.00
2024-02-01T09:13:24.598Z,2166.00
2024-02-01T09:14:24.607Z,2177.00
2024-02-01T09:15:24.620Z,2183.00
2024-02-01T09:16:25.023Z,2192.00
2024-02-01T09:17:24.704Z,2200.00
2024-02-01T09:18:24.849Z,2213.00
2024-02-01T09:19:24.941Z,2223.00
2024-02-01T09:20:24.802Z,2239.00
2024-02-01T09:21:25.096Z,2245.00
2024-02-01T09:22:24.806Z,2254.00
2024-02-01T09:23:24.857Z,2265.00
2024-02-01T09:24:24.977Z,2274.00
2024-02-01T09:25:24.882Z,2283.00
2024-02-01T09:26:24.893Z,2291.00
2024-02-01T09:27:25.042Z,2301.00
2024-02-01T09:28:24.952Z,2318.00
2024-02-01T09:29:24.965Z,2324.00
2024-02-01T09:30:25.087Z,2336.00
2024-02-01T09:31:25.002Z,2353.00
2024-02-01T09:32:24.991Z,2357.00
2024-02-01T09:33:25.167Z,2349.00
2024-02-01T09:34:25.212Z,2348.00
2024-02-01T09:35:25.055Z,2349.00
2024-02-01T09:36:25.616Z,2353.00
2024-02-01T09:37:25.679Z,2357.00
2024-02-01T09:38:25.067Z,2367.00
2024-02-01T09:39:25.105Z,2372.00
2024-02-01T09:40:25.035Z,2387.00
2024-02-01T09:41:25.572Z,2399.00
2024-02-01T09:42:25.146Z,2412.00
2024-02-01T09:43:25.116Z,2416.00
2024-02-01T09:44:25.128Z,2429.00
2024-02-01T09:45:25.148Z,2435.00
2024-02-01T09:46:25.216Z,2435.00
2024-02-01T09:47:25.156Z,2436.00
2024-02-01T09:48:25.299Z,2443.00
2024-02-01T09:49:31.919Z,2440.00
2024-02-01T09:50:26.237Z,2426.00
2024-02-01T09:51:25.317Z,2386.00
2024-02-01T09:52:25.097Z,2387.00
2024-02-01T09:53:25.132Z,2440.00
2024-02-01T09:54:25.167Z,2437.00
2024-02-01T09:55:25.157Z,2448.00
2024-02-01T09:56:25.572Z,2453.00
2024-02-01T09:57:25.083Z,2457.00
2024-02-01T09:58:25.080Z,2448.00
2024-02-01T09:59:25.020Z,2417.00
2024-02-01T10:00:25.214Z,2408.00
2024-02-01T10:01:25.038Z,2416.00
2024-02-01T10:02:25.008Z,2416.00
2024-02-01T10:03:25.528Z,2416.00
2024-02-01T10:04:25.129Z,2419.00
2024-02-01T10:05:25.081Z,2422.00
2024-02-01T10:06:25.133Z,2423.00
2024-02-01T10:07:25.113Z,2421.00
2024-02-01T10:08:25.091Z,2419.00
2024-02-01T10:09:25.165Z,2417.00
2024-02-01T10:10:25.102Z,2418.00
2024-02-01T10:11:25.159Z,2420.00
2024-02-01T10:12:25.257Z,2421.00
2024-02-01T10:13:25.186Z,2415.00
2024-02-01T10:14:25.237Z,2411.00
2024-02-01T10:15:25.366Z,2411.00
2024-02-01T10:16:25.320Z,2406.00
2024-02-01T10:17:25.310Z,2403.00
2024-02-01T10:18:25.402Z,2395.00
2024-02-01T10:19:25.433Z,2389.00
2024-02-01T10:20:25.321Z,2387.00
2024-02-01T10:21:32.497Z,2383.00
2024-02-01T10:22:26.339Z,2362.00
2024-02-01T10:23:25.340Z,2362.00
2024-02-01T10:24:25.407Z,2357.00
2024-02-01T10:25:25.284Z,2351.00
2024-02-01T10:26:25.321Z,2346.00
2024-02-01T10:27:27.344Z,2342.00
2024-02-01T10:28:25.290Z,2336.00
2024-02-01T10:29:25.275Z,2330.00
2024-02-01T10:30:25.458Z,2324.00
2024-02-01T10:31:25.272Z,2321.00
2024-02-01T10:32:25.205Z,2317.00
2024-02-01T10:33:27.142Z,2309.00
2024-02-01T10:34:25.325Z,2301.00
2024-02-01T10:35:25.155Z,2290.00
2024-02-01T10:36:25.223Z,2291.00
2024-02-01T10:37:25.158Z,2295.00
2024-02-01T10:38:50.858Z,2272.00
2024-02-01T10:39:50.845Z,2278.00
2024-02-01T10:40:50.852Z,2282.00
2024-02-01T10:41:50.873Z,2283.00
2024-02-01T10:42:50.801Z,2279.00
2024-02-01T10:43:50.766Z,2282.00
2024-02-01T10:44:50.820Z,2286.00
2024-02-01T10:45:50.789Z,2283.00
2024-02-01T10:46:50.803Z,2293.00
2024-02-01T10:47:50.887Z,2246.00
2024-02-01T10:48:50.801Z,2185.00
2024-02-01T10:49:50.782Z,2197.00
2024-02-01T10:50:50.810Z,2219.00
2024-02-01T10:51:50.782Z,2231.00
2024-02-01T10:52:50.791Z,1374.00
2024-02-01T10:53:50.805Z,1321.00
2024-02-01T10:54:50.766Z,1523.00
2024-02-01T10:55:50.763Z,1812.00
2024-02-01T10:56:50.993Z,1810.00
2024-02-01T10:57:50.759Z,1833.00
2024-02-01T10:58:50.800Z,1857.00
2024-02-01T10:59:50.852Z,1868.00
2024-02-01T11:00:50.802Z,1878.00
2024-02-01T11:01:50.956Z,1886.00
2024-02-01T11:02:50.860Z,1901.00
2024-02-01T11:03:50.836Z,1929.00
2024-02-01T11:04:50.777Z,1991.00
2024-02-01T11:05:50.901Z,2028.00
2024-02-01T11:06:51.063Z,2056.00
2024-02-01T11:07:50.810Z,2113.00
2024-02-01T11:08:50.855Z,2165.00
2024-02-01T11:09:50.959Z,2175.00
2024-02-01T11:10:50.835Z,2187.00
2024-02-01T11:11:51.051Z,2200.00
2024-02-01T11:12:50.815Z,2209.00
2024-02-01T11:13:50.819Z,2219.00
2024-02-01T11:14:50.872Z,2235.00
2024-02-01T11:15:50.832Z,2252.00
2024-02-01T11:16:50.840Z,2275.00
2024-02-01T11:17:50.919Z,2294.00
2024-02-01T11:18:50.884Z,2310.00
2024-02-01T11:19:51.195Z,2320.00
2024-02-01T11:20:50.858Z,2334.00
2024-02-01T11:21:50.832Z,2353.00
2024-02-01T11:22:50.779Z,2369.00
2024-02-01T11:23:50.827Z,2380.00
2024-02-01T11:24:50.807Z,2389.00
2024-02-01T11:25:50.812Z,2400.00
2024-02-01T11:26:50.873Z,2415.00
2024-02-01T11:27:50.811Z,2431.00
2024-02-01T11:28:50.822Z,2448.00
2024-02-01T11:29:51.188Z,2461.00
2024-02-01T11:30:55.793Z,2468.00
2024-02-01T11:31:52.661Z,2474.00
2024-02-01T11:32:50.951Z,2486.00
2024-02-01T11:33:50.955Z,2498.00
2024-02-01T11:34:51.205Z,2507.00
2024-02-01T11:35:50.848Z,2524.00
2024-02-01T11:36:50.793Z,2543.00
2024-02-01T11:37:50.786Z,2558.00
2024-02-01T11:38:50.819Z,2580.00
2024-02-01T11:39:50.808Z,2604.00
2024-02-01T11:40:50.818Z,2599.00
2024-02-01T11:41:51.026Z,2585.00
2024-02-01T11:42:51.859Z,2583.00
2024-02-01T11:43:50.880Z,2587.00
2024-02-01T11:44:50.962Z,2595.00
2024-02-01T11:45:50.999Z,2598.00
2024-02-01T11:46:51.079Z,2589.00
2024-02-01T11:47:51.193Z,2478.00
2024-02-01T11:48:51.208Z,2523.00
2024-02-01T11:49:51.300Z,2507.00
2024-02-01T11:50:51.145Z,2497.00
2024-02-01T11:51:51.496Z,2468.00
2024-02-01T11:52:51.175Z,2052.00
2024-02-01T11:53:51.252Z,2302.00
2024-02-01T11:54:51.226Z,2332.00
2024-02-01T11:55:51.286Z,2379.00
2024-02-01T11:56:51.311Z,2388.00
2024-02-01T11:57:51.310Z,2393.00
2024-02-01T11:58:51.361Z,1451.00
2024-02-01T11:59:51.392Z,1981.00
2024-02-01T12:01:02.485Z,2029.00
2024-02-01T12:01:52.415Z,2012.00
